sensor_id;sensor_type;location;lat;lon;timestamp;P1;durP1;ratioP1;P2;durP2;ratioP2
61570;SDS011;47463;49.884;10.010;2023-03-20T00:00:00;8.9;;;13.2;;
61570;SDS011;47463;49.884;10.010;2023-03-20T00:05:00;8.2;;;12.5;;
61570;SDS011;47463;49.884;10.010;2023-03-20T00:10:00;9;;;12.9;;
61570;SDS011;47463;49.884;10.010;2023-03-20T00:15:00;11.8;;;14.2;;
61570;SDS011;47463;49.884;10.010;2023-03-20T00:20:00;11.8;;;14.3;;
61570;SDS011;47463;49.884;10.010;2023-03-20T00:25:00;11.8;;;14.3;;
61570;SDS011;47463;49.884;10.010;2023-03-20T00:30:00;12.7;;;15.2;;
61570;SDS011;47463;49.884;10.010;2023-03-20T00:35:00;7.5;;;13;;
61570;SDS011;47463;49.884;10.010;2023-03-20T00:40:00;8.7;;;12.7;;
61570;SDS011;47463;49.884;10.010;2023-03-20T00:45:00;6.6;;;11.8;;
61570;SDS011;47463;49.884;10.010;2023-03-20T00:50:00;7.3;;;11.8;;
61570;SDS011;47463;49.884;10.010;2023-03-20T00:55:00;7.3;;;11.8;;
61570;SDS011;47463;49.884;10.010;2023-03-20T01:00:00;5.9;;;11.3;;
61570;SDS011;47463;49.884;10.010;2023-03-20T01:05:00;5.2;;;11.2;;
61570;SDS011;47463;49.884;10.010;2023-03-20T01:10:00;9;;;11.2;;
61570;SDS011;47463;49.884;10.010;2023-03-20T01:15:00;6.5;;;11.2;;
61570;SDS011;47463;49.884;10.010;2023-03-20T01:20:00;6.6;;;11.5;;
61570;SDS011;47463;49.884;10.010;2023-03-20T01:25:00;6.6;;;11.5;;
61570;SDS011;47463;49.884;10.010;2023-03-20T01:30:00;6.4;;;10.6;;
61570;SDS011;47463;49.884;10.010;2023-03-20T01:35:00;6.3;;;10.2;;
61570;SDS011;47463;49.884;10.010;2023-03-20T01:40:00;5.3;;;10.2;;
61570;SDS011;47463;49.884;10.010;2023-03-20T01:45:00;5.4;;;9.7;;
61570;SDS011;47463;49.884;10.010;2023-03-20T01:50:13;4.9;;;9.8;;
61570;SDS011;47463;49.884;10.010;2023-03-20T01:55:00;4.9;;;9.8;;
61570;SDS011;47463;49.884;10.010;2023-03-20T02:00:00;4.5;;;9.6;;
61570;SDS011;47463;49.884;10.010;2023-03-20T02:05:01;5.2;;;10.1;;
61570;SDS011;47463;49.884;10.010;2023-03-20T02:10:00;5.9;;;10.5;;
61570;SDS011;47463;49.884;10.010;2023-03-20T02:15:00;5.5;;;10.7;;
61570;SDS011;47463;49.884;10.010;2023-03-20T02:20:03;4.6;;;10.4;;
61570;SDS011;47463;49.884;10.010;2023-03-20T02:30:05;4.9;;;10.3;;
61570;SDS011;47463;49.884;10.010;2023-03-20T02:35:04;5.8;;;10.6;;
61570;SDS011;47463;49.884;10.010;2023-03-20T02:40:03;5.8;;;10.4;;
61570;SDS011;47463;49.884;10.010;2023-03-20T02:45:02;6.3;;;10.9;;
61570;SDS011;47463;49.884;10.010;2023-03-20T02:50:02;6;;;10.9;;
61570;SDS011;47463;49.884;10.010;2023-03-20T02:55:02;6;;;10.9;;
61570;SDS011;47463;49.884;10.010;2023-03-20T03:00:01;6.2;;;11.5;;
61570;SDS011;47463;49.884;10.010;2023-03-20T03:05:00;7.1;;;11.9;;
61570;SDS011;47463;49.884;10.010;2023-03-20T03:10:00;6.3;;;11.5;;
61570;SDS011;47463;49.884;10.010;2023-03-20T03:15:00;8;;;12.3;;
61570;SDS011;47463;49.884;10.010;2023-03-20T03:20:00;8.9;;;12.4;;
61570;SDS011;47463;49.884;10.010;2023-03-20T03:25:00;8.9;;;12.4;;
61570;SDS011;47463;49.884;10.010;2023-03-20T03:30:00;7;;;12.1;;
61570;SDS011;47463;49.884;10.010;2023-03-20T03:35:00;7.7;;;12;;
61570;SDS011;47463;49.884;10.010;2023-03-20T03:40:02;9.2;;;12.5;;
61570;SDS011;47463;49.884;10.010;2023-03-20T03:45:00;9.2;;;12.7;;
61570;SDS011;47463;49.884;10.010;2023-03-20T03:50:01;7.9;;;12.7;;
61570;SDS011;47463;49.884;10.010;2023-03-20T03:55:01;7.9;;;12.7;;
61570;SDS011;47463;49.884;10.010;2023-03-20T04:00:00;9;;;13.5;;
61570;SDS011;47463;49.884;10.010;2023-03-20T04:05:00;8.5;;;13;;
61570;SDS011;47463;49.884;10.010;2023-03-20T04:10:00;12;;;14;;
61570;SDS011;47463;49.884;10.010;2023-03-20T04:15:00;14;;;14.9;;
61570;SDS011;47463;49.884;10.010;2023-03-20T04:20:00;12.1;;;14.3;;
61570;SDS011;47463;49.884;10.010;2023-03-20T04:25:00;12.1;;;14.3;;
61570;SDS011;47463;49.884;10.010;2023-03-20T04:30:00;11.9;;;14.1;;
61570;SDS011;47463;49.884;10.010;2023-03-20T04:35:00;9.9;;;13.7;;
61570;SDS011;47463;49.884;10.010;2023-03-20T04:40:00;10;;;13.9;;
61570;SDS011;47463;49.884;10.010;2023-03-20T04:45:00;12.9;;;15.4;;
61570;SDS011;47463;49.884;10.010;2023-03-20T04:50:00;9.9;;;13.2;;
61570;SDS011;47463;49.884;10.010;2023-03-20T04:55:00;9.9;;;13.2;;
61570;SDS011;47463;49.884;10.010;2023-03-20T05:00:00;9.7;;;14;;
61570;SDS011;47463;49.884;10.010;2023-03-20T05:05:00;11.1;;;14.3;;
61570;SDS011;47463;49.884;10.010;2023-03-20T05:10:00;12.4;;;15.4;;
61570;SDS011;47463;49.884;10.010;2023-03-20T05:15:00;14.8;;;15.8;;
61570;SDS011;47463;49.884;10.010;2023-03-20T05:20:00;12.5;;;15.5;;
61570;SDS011;47463;49.884;10.010;2023-03-20T05:25:00;12.5;;;15.5;;
61570;SDS011;47463;49.884;10.010;2023-03-20T05:30:00;16.1;;;16.1;;
61570;SDS011;47463;49.884;10.010;2023-03-20T05:35:00;16.1;;;16.7;;
61570;SDS011;47463;49.884;10.010;2023-03-20T05:40:00;16.9;;;16.5;;
61570;SDS011;47463;49.884;10.010;2023-03-20T05:45:00;18.1;;;17.3;;
61570;SDS011;47463;49.884;10.010;2023-03-20T05:50:00;21.1;;;17.9;;
61570;SDS011;47463;49.884;10.010;2023-03-20T05:55:00;21.1;;;17.9;;
61570;SDS011;47463;49.884;10.010;2023-03-20T06:00:00;18.5;;;17.3;;
61570;SDS011;47463;49.884;10.010;2023-03-20T06:05:00;18.7;;;17.7;;
61570;SDS011;47463;49.884;10.010;2023-03-20T06:10:00;24;;;19.6;;
61570;SDS011;47463;49.884;10.010;2023-03-20T06:15:00;24.2;;;19.8;;
61570;SDS011;47463;49.884;10.010;2023-03-20T06:20:00;27.3;;;21.7;;
61570;SDS011;47463;49.884;10.010;2023-03-20T06:25:00;27.3;;;21.7;;
61570;SDS011;47463;49.884;10.010;2023-03-20T06:30:00;26.7;;;20.9;;
61570;SDS011;47463;49.884;10.010;2023-03-20T06:35:00;28.2;;;21.4;;
61570;SDS011;47463;49.884;10.010;2023-03-20T06:40:00;29.1;;;22.3;;
61570;SDS011;47463;49.884;10.010;2023-03-20T06:45:00;27.7;;;21.2;;
61570;SDS011;47463;49.884;10.010;2023-03-20T06:50:00;27.5;;;22;;
61570;SDS011;47463;49.884;10.010;2023-03-20T06:55:00;27.5;;;22;;
61570;SDS011;47463;49.884;10.010;2023-03-20T07:00:00;25.7;;;21.2;;
61570;SDS011;47463;49.884;10.010;2023-03-20T07:05:00;23.8;;;20.3;;
61570;SDS011;47463;49.884;10.010;2023-03-20T07:10:00;26;;;21;;
61570;SDS011;47463;49.884;10.010;2023-03-20T07:15:00;24.6;;;20.8;;
61570;SDS011;47463;49.884;10.010;2023-03-20T07:20:00;23.3;;;19.8;;
61570;SDS011;47463;49.884;10.010;2023-03-20T07:25:00;23.3;;;19.8;;
61570;SDS011;47463;49.884;10.010;2023-03-20T07:30:00;23.1;;;19.8;;
61570;SDS011;47463;49.884;10.010;2023-03-20T07:35:00;23;;;19.6;;
61570;SDS011;47463;49.884;10.010;2023-03-20T07:40:00;21.7;;;19.6;;
61570;SDS011;47463;49.884;10.010;2023-03-20T07:45:00;19.2;;;18.8;;
61570;SDS011;47463;49.884;10.010;2023-03-20T07:50:00;17.7;;;18;;
61570;SDS011;47463;49.884;10.010;2023-03-20T07:55:00;17.7;;;18;;
61570;SDS011;47463;49.884;10.010;2023-03-20T08:00:00;19.4;;;18.4;;
61570;SDS011;47463;49.884;10.010;2023-03-20T08:05:00;16.8;;;17.4;;
61570;SDS011;47463;49.884;10.010;2023-03-20T08:10:00;16.2;;;17;;
61570;SDS011;47463;49.884;10.010;2023-03-20T08:15:00;16.1;;;16.7;;
61570;SDS011;47463;49.884;10.010;2023-03-20T08:20:00;14.2;;;16.2;;
61570;SDS011;47463;49.884;10.010;2023-03-20T08:25:00;14.2;;;16.2;;
61570;SDS011;47463;49.884;10.010;2023-03-20T08:30:00;15;;;16.4;;
61570;SDS011;47463;49.884;10.010;2023-03-20T08:35:00;14.4;;;15.9;;
61570;SDS011;47463;49.884;10.010;2023-03-20T08:40:00;15.5;;;16.1;;
61570;SDS011;47463;49.884;10.010;2023-03-20T08:45:00;15.6;;;16.6;;
61570;SDS011;47463;49.884;10.010;2023-03-20T08:50:00;14.9;;;16.7;;
61570;SDS011;47463;49.884;10.010;2023-03-20T08:55:00;14.9;;;16.7;;
61570;SDS011;47463;49.884;10.010;2023-03-20T09:00:00;18.1;;;16.8;;
61570;SDS011;47463;49.884;10.010;2023-03-20T09:05:00;18.8;;;17.2;;
61570;SDS011;47463;49.884;10.010;2023-03-20T09:10:00;18.6;;;17;;
61570;SDS011;47463;49.884;10.010;2023-03-20T09:15:00;17.3;;;16.7;;
61570;SDS011;47463;49.884;10.010;2023-03-20T09:20:00;17.1;;;17;;
61570;SDS011;47463;49.884;10.010;2023-03-20T09:25:00;17.1;;;17;;
61570;SDS011;47463;49.884;10.010;2023-03-20T09:30:00;18.9;;;17;;
61570;SDS011;47463;49.884;10.010;2023-03-20T09:35:00;21;;;18.4;;
61570;SDS011;47463;49.884;10.010;2023-03-20T09:40:00;19.5;;;17.9;;
61570;SDS011;47463;49.884;10.010;2023-03-20T09:45:01;21.6;;;18.2;;
61570;SDS011;47463;49.884;10.010;2023-03-20T09:50:03;22.4;;;18.8;;
61570;SDS011;47463;49.884;10.010;2023-03-20T09:55:00;22.4;;;18.8;;
61570;SDS011;47463;49.884;10.010;2023-03-20T10:00:00;21.9;;;18.9;;
61570;SDS011;47463;49.884;10.010;2023-03-20T10:05:00;25.3;;;18.1;;
61570;SDS011;47463;49.884;10.010;2023-03-20T10:10:00;24.5;;;18.7;;
61570;SDS011;47463;49.884;10.010;2023-03-20T10:15:01;26.8;;;19.5;;
61570;SDS011;47463;49.884;10.010;2023-03-20T10:20:01;24.3;;;18.2;;
61570;SDS011;47463;49.884;10.010;2023-03-20T10:25:02;24.3;;;18.2;;
61570;SDS011;47463;49.884;10.010;2023-03-20T10:30:02;24.3;;;17.7;;
61570;SDS011;47463;49.884;10.010;2023-03-20T10:35:03;27.1;;;19.9;;
61570;SDS011;47463;49.884;10.010;2023-03-20T10:40:02;24.4;;;19.6;;
61570;SDS011;47463;49.884;10.010;2023-03-20T10:45:00;26.6;;;19.7;;
61570;SDS011;47463;49.884;10.010;2023-03-20T10:50:00;23.4;;;19.5;;
61570;SDS011;47463;49.884;10.010;2023-03-20T10:55:02;23.4;;;19.5;;
61570;SDS011;47463;49.884;10.010;2023-03-20T11:00:00;22.9;;;19.1;;
61570;SDS011;47463;49.884;10.010;2023-03-20T11:05:21;26.6;;;20.2;;
61570;SDS011;47463;49.884;10.010;2023-03-20T11:10:08;26.5;;;20.2;;
61570;SDS011;47463;49.884;10.010;2023-03-20T11:15:00;27.7;;;20.6;;
61570;SDS011;47463;49.884;10.010;2023-03-20T11:20:01;26.3;;;20;;
61570;SDS011;47463;49.884;10.010;2023-03-20T11:25:00;26.3;;;20;;
61570;SDS011;47463;49.884;10.010;2023-03-20T11:30:00;25.2;;;19.8;;
61570;SDS011;47463;49.884;10.010;2023-03-20T11:35:08;23.8;;;18.4;;
61570;SDS011;47463;49.884;10.010;2023-03-20T11:40:05;21.2;;;18.3;;
61570;SDS011;47463;49.884;10.010;2023-03-20T11:45:00;23.4;;;18.2;;
61570;SDS011;47463;49.884;10.010;2023-03-20T11:50:00;23.9;;;18.3;;
61570;SDS011;47463;49.884;10.010;2023-03-20T11:55:00;23.9;;;18.3;;
61570;SDS011;47463;49.884;10.010;2023-03-20T12:00:01;20;;;16.9;;
61570;SDS011;47463;49.884;10.010;2023-03-20T12:05:00;19.5;;;17.4;;
61570;SDS011;47463;49.884;10.010;2023-03-20T12:10:00;18;;;16.4;;
61570;SDS011;47463;49.884;10.010;2023-03-20T12:15:01;16.6;;;16.2;;
61570;SDS011;47463;49.884;10.010;2023-03-20T12:20:01;18.1;;;16.5;;
61570;SDS011;47463;49.884;10.010;2023-03-20T12:25:00;18.1;;;16.5;;
61570;SDS011;47463;49.884;10.010;2023-03-20T12:30:00;18.4;;;16.7;;
61570;SDS011;47463;49.884;10.010;2023-03-20T12:35:01;17;;;16.3;;
61570;SDS011;47463;49.884;10.010;2023-03-20T12:40:00;16.5;;;16;;
61570;SDS011;47463;49.884;10.010;2023-03-20T12:45:00;16.1;;;15.9;;
61570;SDS011;47463;49.884;10.010;2023-03-20T12:50:01;13.5;;;15.1;;
61570;SDS011;47463;49.884;10.010;2023-03-20T12:55:04;13.5;;;15.1;;
61570;SDS011;47463;49.884;10.010;2023-03-20T13:00:04;14.1;;;14.8;;
61570;SDS011;47463;49.884;10.010;2023-03-20T13:05:02;12.9;;;14.3;;
61570;SDS011;47463;49.884;10.010;2023-03-20T13:10:02;11.3;;;13.3;;
61570;SDS011;47463;49.884;10.010;2023-03-20T13:15:01;11.2;;;12.9;;
61570;SDS011;47463;49.884;10.010;2023-03-20T13:20:08;10;;;12.4;;
61570;SDS011;47463;49.884;10.010;2023-03-20T13:25:00;10;;;12.4;;
61570;SDS011;47463;49.884;10.010;2023-03-20T13:30:00;9.9;;;12.8;;
61570;SDS011;47463;49.884;10.010;2023-03-20T13:35:03;10.3;;;13.1;;
61570;SDS011;47463;49.884;10.010;2023-03-20T13:40:02;10.5;;;12.8;;
61570;SDS011;47463;49.884;10.010;2023-03-20T13:45:01;10.4;;;13;;
61570;SDS011;47463;49.884;10.010;2023-03-20T13:50:03;11.4;;;13.4;;
61570;SDS011;47463;49.884;10.010;2023-03-20T13:55:05;11.4;;;13.4;;
61570;SDS011;47463;49.884;10.010;2023-03-20T14:00:00;10.3;;;12.9;;
61570;SDS011;47463;49.884;10.010;2023-03-20T14:05:01;10.5;;;12.8;;
61570;SDS011;47463;49.884;10.010;2023-03-20T14:11:06;9.3;;;12.1;;
61570;SDS011;47463;49.884;10.010;2023-03-20T14:15:00;9.3;;;11.8;;
61570;SDS011;47463;49.884;10.010;2023-03-20T14:20:09;9.1;;;12.2;;
61570;SDS011;47463;49.884;10.010;2023-03-20T14:25:03;9.1;;;12.2;;
61570;SDS011;47463;49.884;10.010;2023-03-20T14:30:13;7.8;;;11.5;;
61570;SDS011;47463;49.884;10.010;2023-03-20T14:35:01;7.9;;;11.5;;
61570;SDS011;47463;49.884;10.010;2023-03-20T14:40:01;8.8;;;12.1;;
61570;SDS011;47463;49.884;10.010;2023-03-20T14:45:05;8.4;;;11.3;;
61570;SDS011;47463;49.884;10.010;2023-03-20T14:50:02;8.3;;;11.6;;
61570;SDS011;47463;49.884;10.010;2023-03-20T14:55:13;8.3;;;11.6;;
61570;SDS011;47463;49.884;10.010;2023-03-20T15:00:00;7.6;;;11.5;;
61570;SDS011;47463;49.884;10.010;2023-03-20T15:05:00;8.4;;;11.4;;
61570;SDS011;47463;49.884;10.010;2023-03-20T15:10:00;6.6;;;10.8;;
61570;SDS011;47463;49.884;10.010;2023-03-20T15:15:00;5.6;;;9.9;;
61570;SDS011;47463;49.884;10.010;2023-03-20T15:20:00;6.2;;;10.3;;
61570;SDS011;47463;49.884;10.010;2023-03-20T15:25:00;6.2;;;10.3;;
61570;SDS011;47463;49.884;10.010;2023-03-20T15:30:00;6.7;;;10.7;;
61570;SDS011;47463;49.884;10.010;2023-03-20T15:35:00;7.6;;;11.1;;
61570;SDS011;47463;49.884;10.010;2023-03-20T15:40:00;8.1;;;11.5;;
61570;SDS011;47463;49.884;10.010;2023-03-20T15:45:00;8.8;;;11.4;;
61570;SDS011;47463;49.884;10.010;2023-03-20T15:50:00;10.1;;;12.7;;
61570;SDS011;47463;49.884;10.010;2023-03-20T15:55:02;10.1;;;12.7;;
61570;SDS011;47463;49.884;10.010;2023-03-20T16:00:00;7.8;;;11.7;;
61570;SDS011;47463;49.884;10.010;2023-03-20T16:05:00;8.2;;;11.6;;
61570;SDS011;47463;49.884;10.010;2023-03-20T16:10:00;7.3;;;11.5;;
61570;SDS011;47463;49.884;10.010;2023-03-20T16:15:00;8;;;11.4;;
61570;SDS011;47463;49.884;10.010;2023-03-20T16:20:00;8.6;;;11.7;;
61570;SDS011;47463;49.884;10.010;2023-03-20T16:25:00;8.6;;;11.7;;
61570;SDS011;47463;49.884;10.010;2023-03-20T16:30:02;7.1;;;11.6;;
61570;SDS011;47463;49.884;10.010;2023-03-20T16:35:01;5.8;;;10.6;;
61570;SDS011;47463;49.884;10.010;2023-03-20T16:40:00;6;;;10.7;;
61570;SDS011;47463;49.884;10.010;2023-03-20T16:45:00;6.6;;;10.8;;
61570;SDS011;47463;49.884;10.010;2023-03-20T16:50:02;6.8;;;10.7;;
61570;SDS011;47463;49.884;10.010;2023-03-20T16:55:00;6.8;;;10.7;;
61570;SDS011;47463;49.884;10.010;2023-03-20T17:00:01;6.5;;;10.2;;
61570;SDS011;47463;49.884;10.010;2023-03-20T17:05:00;7.3;;;10.5;;
61570;SDS011;47463;49.884;10.010;2023-03-20T17:10:08;6.2;;;10.3;;
61570;SDS011;47463;49.884;10.010;2023-03-20T17:15:00;6.1;;;10.2;;
61570;SDS011;47463;49.884;10.010;2023-03-20T17:20:00;6.4;;;10.1;;
61570;SDS011;47463;49.884;10.010;2023-03-20T17:25:00;6.4;;;10.1;;
61570;SDS011;47463;49.884;10.010;2023-03-20T17:30:00;5.4;;;9.7;;
61570;SDS011;47463;49.884;10.010;2023-03-20T17:35:00;6.6;;;10.4;;
61570;SDS011;47463;49.884;10.010;2023-03-20T17:40:00;6.4;;;9.9;;
61570;SDS011;47463;49.884;10.010;2023-03-20T17:45:00;6.3;;;9.9;;
61570;SDS011;47463;49.884;10.010;2023-03-20T17:50:00;6.9;;;10;;
61570;SDS011;47463;49.884;10.010;2023-03-20T17:55:00;6.9;;;10;;
61570;SDS011;47463;49.884;10.010;2023-03-20T18:00:00;7.7;;;10.4;;
61570;SDS011;47463;49.884;10.010;2023-03-20T18:05:00;4.5;;;9.8;;
61570;SDS011;47463;49.884;10.010;2023-03-20T18:10:00;5.9;;;9.7;;
61570;SDS011;47463;49.884;10.010;2023-03-20T18:15:00;5.6;;;10;;
61570;SDS011;47463;49.884;10.010;2023-03-20T18:20:00;5.3;;;10.2;;
61570;SDS011;47463;49.884;10.010;2023-03-20T18:25:00;5.3;;;10.2;;
61570;SDS011;47463;49.884;10.010;2023-03-20T18:30:00;4.8;;;9.9;;
61570;SDS011;47463;49.884;10.010;2023-03-20T18:35:00;7.3;;;10.6;;
61570;SDS011;47463;49.884;10.010;2023-03-20T18:40:00;7.3;;;10.6;;
61570;SDS011;47463;49.884;10.010;2023-03-20T18:45:00;7;;;10.3;;
61570;SDS011;47463;49.884;10.010;2023-03-20T18:50:00;7.7;;;10.9;;
61570;SDS011;47463;49.884;10.010;2023-03-20T18:55:00;7.7;;;10.9;;
61570;SDS011;47463;49.884;10.010;2023-03-20T19:00:00;6.2;;;10.1;;
61570;SDS011;47463;49.884;10.010;2023-03-20T19:05:00;4.7;;;9.8;;
61570;SDS011;47463;49.884;10.010;2023-03-20T19:10:00;6.4;;;9.8;;
61570;SDS011;47463;49.884;10.010;2023-03-20T19:15:00;5.4;;;10.1;;
61570;SDS011;47463;49.884;10.010;2023-03-20T19:20:00;5.7;;;9.4;;
61570;SDS011;47463;49.884;10.010;2023-03-20T19:25:00;5.7;;;9.4;;
61570;SDS011;47463;49.884;10.010;2023-03-20T19:30:00;6.2;;;9.3;;
61570;SDS011;47463;49.884;10.010;2023-03-20T19:35:00;3.8;;;8.8;;
61570;SDS011;47463;49.884;10.010;2023-03-20T19:40:00;4.4;;;9;;
61570;SDS011;47463;49.884;10.010;2023-03-20T19:45:03;4.7;;;9.3;;
61570;SDS011;47463;49.884;10.010;2023-03-20T19:50:00;3.5;;;8.9;;
61570;SDS011;47463;49.884;10.010;2023-03-20T19:55:00;3.5;;;8.9;;
61570;SDS011;47463;49.884;10.010;2023-03-20T20:00:00;3.8;;;8.8;;
61570;SDS011;47463;49.884;10.010;2023-03-20T20:05:00;4.8;;;9;;
61570;SDS011;47463;49.884;10.010;2023-03-20T20:10:00;5;;;9;;
61570;SDS011;47463;49.884;10.010;2023-03-20T20:15:00;3.9;;;8.8;;
61570;SDS011;47463;49.884;10.010;2023-03-20T20:20:00;5.3;;;8.8;;
61570;SDS011;47463;49.884;10.010;2023-03-20T20:25:00;5.3;;;8.8;;
61570;SDS011;47463;49.884;10.010;2023-03-20T20:30:00;6.1;;;8.7;;
61570;SDS011;47463;49.884;10.010;2023-03-20T20:35:00;5.2;;;8.7;;
61570;SDS011;47463;49.884;10.010;2023-03-20T20:40:00;4.6;;;8.7;;
61570;SDS011;47463;49.884;10.010;2023-03-20T20:45:00;5.4;;;8.8;;
61570;SDS011;47463;49.884;10.010;2023-03-20T20:50:00;5;;;8.7;;
61570;SDS011;47463;49.884;10.010;2023-03-20T20:55:00;5;;;8.7;;
61570;SDS011;47463;49.884;10.010;2023-03-20T21:00:00;4.7;;;8.9;;
61570;SDS011;47463;49.884;10.010;2023-03-20T21:05:00;3.9;;;8.6;;
61570;SDS011;47463;49.884;10.010;2023-03-20T21:10:00;3.5;;;8.8;;
61570;SDS011;47463;49.884;10.010;2023-03-20T21:15:00;4.1;;;8.9;;
61570;SDS011;47463;49.884;10.010;2023-03-20T21:20:00;5.4;;;8.7;;
61570;SDS011;47463;49.884;10.010;2023-03-20T21:25:00;5.4;;;8.7;;
61570;SDS011;47463;49.884;10.010;2023-03-20T21:30:00;5.4;;;8.9;;
61570;SDS011;47463;49.884;10.010;2023-03-20T21:35:00;6.5;;;9;;
61570;SDS011;47463;49.884;10.010;2023-03-20T21:40:00;5.4;;;9.2;;
61570;SDS011;47463;49.884;10.010;2023-03-20T21:45:00;6.7;;;9.1;;
61570;SDS011;47463;49.884;10.010;2023-03-20T21:50:00;3.9;;;8.8;;
61570;SDS011;47463;49.884;10.010;2023-03-20T21:55:00;3.9;;;8.8;;
61570;SDS011;47463;49.884;10.010;2023-03-20T22:00:00;5.3;;;9.2;;
61570;SDS011;47463;49.884;10.010;2023-03-20T22:05:00;5;;;8.8;;
61570;SDS011;47463;49.884;10.010;2023-03-20T22:10:00;3.6;;;8.8;;
61570;SDS011;47463;49.884;10.010;2023-03-20T22:15:00;4.5;;;8.8;;
61570;SDS011;47463;49.884;10.010;2023-03-20T22:20:00;4.6;;;8.9;;
61570;SDS011;47463;49.884;10.010;2023-03-20T22:25:00;4.6;;;8.9;;
61570;SDS011;47463;49.884;10.010;2023-03-20T22:30:00;5.7;;;9.1;;
61570;SDS011;47463;49.884;10.010;2023-03-20T22:35:00;4.3;;;8.9;;
61570;SDS011;47463;49.884;10.010;2023-03-20T22:40:00;5.4;;;9;;
61570;SDS011;47463;49.884;10.010;2023-03-20T22:45:00;5.7;;;9.1;;
61570;SDS011;47463;49.884;10.010;2023-03-20T22:50:00;6.2;;;9.4;;
61570;SDS011;47463;49.884;10.010;2023-03-20T22:55:00;6.2;;;9.4;;
61570;SDS011;47463;49.884;10.010;2023-03-20T23:00:00;5.5;;;9.1;;
61570;SDS011;47463;49.884;10.010;2023-03-20T23:05:00;6.7;;;9.2;;
61570;SDS011;47463;49.884;10.010;2023-03-20T23:10:00;5;;;9.2;;
61570;SDS011;47463;49.884;10.010;2023-03-20T23:15:00;5.4;;;9.1;;
61570;SDS011;47463;49.884;10.010;2023-03-20T23:20:00;7.6;;;9.4;;
61570;SDS011;47463;49.884;10.010;2023-03-20T23:25:00;7.6;;;9.4;;
61570;SDS011;47463;49.884;10.010;2023-03-20T23:30:00;6.1;;;9.7;;
61570;SDS011;47463;49.884;10.010;2023-03-20T23:35:00;5.9;;;9.5;;
61570;SDS011;47463;49.884;10.010;2023-03-20T23:40:00;5.2;;;9;;
61570;SDS011;47463;49.884;10.010;2023-03-20T23:45:00;5.8;;;9.1;;
61570;SDS011;47463;49.884;10.010;2023-03-20T23:50:00;6.5;;;9.3;;
61570;SDS011;47463;49.884;10.010;2023-03-20T23:55:00;6.5;;;9.3;;
